KAL1022 RKSS-RKPC
Flight info
| Callsign | KAL1022 |
|---|---|
| Flight time | 0h 48m |
| Altitude | 40000 |
| Route | BULTI2T BULTI Y711 DOTOL DOTOL2P |
| Aircraft | A359/H-SDE2E3GHIJ3J4J5LM1ORWXY/LB1D1 |
Departure
| Time | 2026-04-29 01:14 |
|---|---|
| Airport | Gimpo International Airport (RKSS) |
Arrival
| Time | 2026-04-29 02:02 |
|---|---|
| Airport | Jeju International Airport (RKPC) |
| Time | Latitude | Longitude | Altitude | Speed | Heading |
|---|---|---|---|---|---|
| 2026-04-29 00:40 | 37.55756 | 126.80325 | 39 ft | 0 kts | 44° |
| 2026-04-29 00:40 | 37.55762 | 126.80334 | 27 ft | 0 kts | 41° |
| 2026-04-29 00:41 | 37.55756 | 126.80325 | 39 ft | 0 kts | 44° |
| 2026-04-29 01:02 | 37.55753 | 126.80322 | 74 ft | 4 kts | 44° |
| 2026-04-29 01:02 | 37.55733 | 126.80298 | 71 ft | 4 kts | 45° |
| 2026-04-29 01:02 | 37.55715 | 126.80274 | 63 ft | 4 kts | 47° |
| 2026-04-29 01:03 | 37.55699 | 126.80249 | 63 ft | 3 kts | 58° |
| 2026-04-29 01:03 | 37.55693 | 126.80233 | 63 ft | 2 kts | 86° |
| 2026-04-29 01:03 | 37.55694 | 126.80219 | 63 ft | 2 kts | 118° |
| 2026-04-29 01:03 | 37.55700 | 126.80208 | 63 ft | 2 kts | 130° |
| 2026-04-29 01:04 | 37.55708 | 126.80197 | 63 ft | 2 kts | 134° |
| 2026-04-29 01:04 | 37.55711 | 126.80193 | 63 ft | 0 kts | 134° |
| 2026-04-29 01:07 | 37.55710 | 126.80194 | 73 ft | 1 kts | 134° |
| 2026-04-29 01:07 | 37.55687 | 126.80223 | 67 ft | 8 kts | 134° |
| 2026-04-29 01:07 | 37.55636 | 126.80286 | 64 ft | 12 kts | 138° |
| 2026-04-29 01:08 | 37.55560 | 126.80346 | 67 ft | 13 kts | 155° |
| 2026-04-29 01:08 | 37.55532 | 126.80344 | 68 ft | 1 kts | 217° |
| 2026-04-29 01:08 | 37.55530 | 126.80338 | 68 ft | 1 kts | 238° |
| 2026-04-29 01:08 | 37.55531 | 126.80326 | 65 ft | 3 kts | 274° |
| 2026-04-29 01:09 | 37.55531 | 126.80289 | 69 ft | 5 kts | 263° |
| 2026-04-29 01:09 | 37.55516 | 126.80240 | 62 ft | 6 kts | 237° |
| 2026-04-29 01:09 | 37.55476 | 126.80187 | 66 ft | 9 kts | 217° |
| 2026-04-29 01:09 | 37.55416 | 126.80190 | 65 ft | 9 kts | 138° |
| 2026-04-29 01:10 | 37.55367 | 126.80264 | 64 ft | 13 kts | 134° |
| 2026-04-29 01:10 | 37.55287 | 126.80361 | 64 ft | 18 kts | 137° |
| 2026-04-29 01:10 | 37.55185 | 126.80490 | 62 ft | 23 kts | 130° |
| 2026-04-29 01:10 | 37.55069 | 126.80642 | 64 ft | 25 kts | 134° |
| 2026-04-29 01:11 | 37.54946 | 126.80794 | 64 ft | 15 kts | 135° |
| 2026-04-29 01:11 | 37.54938 | 126.80805 | 61 ft | 3 kts | 135° |
| 2026-04-29 01:11 | 37.54901 | 126.80838 | 61 ft | 5 kts | 171° |
| 2026-04-29 01:11 | 37.54870 | 126.80816 | 61 ft | 8 kts | 212° |
| 2026-04-29 01:12 | 37.54815 | 126.80753 | 61 ft | 13 kts | 225° |
| 2026-04-29 01:12 | 37.54801 | 126.80720 | 56 ft | 0 kts | 274° |
| 2026-04-29 01:12 | 37.54801 | 126.80719 | 56 ft | 0 kts | 276° |
| 2026-04-29 01:12 | 37.54802 | 126.80712 | 58 ft | 2 kts | 280° |
| 2026-04-29 01:13 | 37.54814 | 126.80676 | 60 ft | 7 kts | 298° |
| 2026-04-29 01:13 | 37.54854 | 126.80615 | 58 ft | 11 kts | 315° |
| 2026-04-29 01:13 | 37.54860 | 126.80608 | 62 ft | 0 kts | 315° |
| 2026-04-29 01:13 | 37.54860 | 126.80607 | 62 ft | 3 kts | 315° |
| 2026-04-29 01:14 | 37.55081 | 126.80330 | 61 ft | 84 kts | 315° |
| 2026-04-29 01:14 | 37.55669 | 126.79600 | 67 ft | 150 kts | 314° |
| 2026-04-29 01:14 | 37.56498 | 126.78522 | 371 ft | 186 kts | 314° |
| 2026-04-29 01:14 | 37.57447 | 126.77301 | 987 ft | 204 kts | 315° |
| 2026-04-29 01:15 | 37.58478 | 126.75923 | 1430 ft | 231 kts | 313° |
| 2026-04-29 01:15 | 37.59222 | 126.74906 | 1527 ft | 243 kts | 313° |
| 2026-04-29 01:15 | 37.60783 | 126.72798 | 1532 ft | 244 kts | 314° |
| 2026-04-29 01:15 | 37.61869 | 126.71135 | 2044 ft | 249 kts | 301° |
| 2026-04-29 01:16 | 37.62270 | 126.69783 | 2765 ft | 250 kts | 281° |
| 2026-04-29 01:16 | 37.62080 | 126.67629 | 3917 ft | 253 kts | 251° |
| 2026-04-29 01:16 | 37.61076 | 126.65789 | 4627 ft | 260 kts | 230° |
| 2026-04-29 01:16 | 37.59816 | 126.64138 | 4954 ft | 263 kts | 227° |
| 2026-04-29 01:17 | 37.58539 | 126.62502 | 5209 ft | 262 kts | 228° |
| 2026-04-29 01:17 | 37.56802 | 126.60337 | 6222 ft | 268 kts | 220° |
| 2026-04-29 01:17 | 37.55152 | 126.59250 | 7313 ft | 271 kts | 195° |
| 2026-04-29 01:17 | 37.53898 | 126.58957 | 8021 ft | 272 kts | 187° |
| 2026-04-29 01:18 | 37.51374 | 126.58643 | 9310 ft | 279 kts | 186° |
| 2026-04-29 01:18 | 37.48087 | 126.58248 | 10869 ft | 287 kts | 186° |
| 2026-04-29 01:18 | 37.45434 | 126.57906 | 11722 ft | 292 kts | 187° |
| 2026-04-29 01:19 | 37.44067 | 126.57726 | 11921 ft | 293 kts | 187° |
| 2026-04-29 01:19 | 37.42031 | 126.57459 | 11994 ft | 295 kts | 186° |
| 2026-04-29 01:19 | 37.40004 | 126.57440 | 11999 ft | 296 kts | 173° |
| 2026-04-29 01:19 | 37.37948 | 126.57897 | 11999 ft | 297 kts | 168° |
| 2026-04-29 01:20 | 37.35919 | 126.58460 | 12006 ft | 316 kts | 167° |
| 2026-04-29 01:20 | 37.33644 | 126.59097 | 11999 ft | 354 kts | 167° |
| 2026-04-29 01:20 | 37.31148 | 126.59795 | 12265 ft | 378 kts | 166° |
| 2026-04-29 01:20 | 37.28531 | 126.60650 | 12954 ft | 388 kts | 165° |
| 2026-04-29 01:21 | 37.25909 | 126.61546 | 13807 ft | 394 kts | 165° |
| 2026-04-29 01:21 | 37.23280 | 126.62432 | 14601 ft | 399 kts | 166° |
| 2026-04-29 01:21 | 37.20583 | 126.63336 | 15410 ft | 403 kts | 167° |
| 2026-04-29 01:21 | 37.17857 | 126.64245 | 16167 ft | 408 kts | 169° |
| 2026-04-29 01:22 | 37.15100 | 126.65156 | 16945 ft | 411 kts | 171° |
| 2026-04-29 01:22 | 37.12317 | 126.66071 | 17714 ft | 415 kts | 172° |
| 2026-04-29 01:22 | 37.09511 | 126.66991 | 18463 ft | 419 kts | 173° |
| 2026-04-29 01:22 | 37.06678 | 126.67919 | 19081 ft | 423 kts | 174° |
| 2026-04-29 01:23 | 37.03814 | 126.68855 | 19676 ft | 428 kts | 174° |
| 2026-04-29 01:23 | 37.00922 | 126.69803 | 20285 ft | 432 kts | 174° |
| 2026-04-29 01:23 | 36.98006 | 126.70764 | 20899 ft | 435 kts | 174° |
| 2026-04-29 01:23 | 36.95062 | 126.71728 | 21504 ft | 439 kts | 175° |
| 2026-04-29 01:24 | 36.92092 | 126.72700 | 22104 ft | 443 kts | 175° |
| 2026-04-29 01:24 | 36.89112 | 126.73874 | 22715 ft | 454 kts | 169° |
| 2026-04-29 01:24 | 36.86152 | 126.75346 | 23287 ft | 461 kts | 167° |
| 2026-04-29 01:24 | 36.83163 | 126.76889 | 23817 ft | 466 kts | 167° |
| 2026-04-29 01:25 | 36.80163 | 126.78438 | 24080 ft | 468 kts | 167° |
| 2026-04-29 01:25 | 36.77155 | 126.79985 | 24141 ft | 469 kts | 168° |
| 2026-04-29 01:25 | 36.74130 | 126.81487 | 24153 ft | 467 kts | 171° |
| 2026-04-29 01:25 | 36.71001 | 126.82449 | 24155 ft | 459 kts | 182° |
| 2026-04-29 01:26 | 36.67832 | 126.82830 | 24149 ft | 456 kts | 186° |
| 2026-04-29 01:26 | 36.64664 | 126.83006 | 24146 ft | 454 kts | 188° |
| 2026-04-29 01:26 | 36.61551 | 126.83088 | 24150 ft | 453 kts | 188° |
| 2026-04-29 01:26 | 36.58402 | 126.83147 | 24153 ft | 453 kts | 188° |
| 2026-04-29 01:27 | 36.55246 | 126.83213 | 24150 ft | 453 kts | 188° |
| 2026-04-29 01:27 | 36.52093 | 126.83297 | 24153 ft | 454 kts | 188° |
| 2026-04-29 01:27 | 36.48934 | 126.83393 | 24158 ft | 454 kts | 188° |
| 2026-04-29 01:27 | 36.45772 | 126.83502 | 24156 ft | 454 kts | 188° |
| 2026-04-29 01:28 | 36.42615 | 126.83620 | 24152 ft | 455 kts | 188° |
| 2026-04-29 01:28 | 36.39454 | 126.83693 | 24153 ft | 451 kts | 191° |
| 2026-04-29 01:28 | 36.36333 | 126.83493 | 24158 ft | 448 kts | 193° |
| 2026-04-29 01:28 | 36.33224 | 126.83215 | 24156 ft | 447 kts | 194° |
| 2026-04-29 01:29 | 36.30126 | 126.82893 | 24161 ft | 447 kts | 194° |
| 2026-04-29 01:29 | 36.27033 | 126.82551 | 24159 ft | 446 kts | 194° |
| 2026-04-29 01:29 | 36.23940 | 126.82202 | 24159 ft | 447 kts | 194° |
| 2026-04-29 01:29 | 36.20843 | 126.81853 | 24161 ft | 447 kts | 194° |
| 2026-04-29 01:30 | 36.17750 | 126.81508 | 24167 ft | 447 kts | 194° |
| 2026-04-29 01:30 | 36.14656 | 126.81168 | 24169 ft | 447 kts | 194° |
| 2026-04-29 01:30 | 36.11552 | 126.80829 | 24171 ft | 447 kts | 194° |
| 2026-04-29 01:30 | 36.08451 | 126.80493 | 24173 ft | 447 kts | 194° |
| 2026-04-29 01:31 | 36.05345 | 126.80157 | 24175 ft | 447 kts | 194° |
| 2026-04-29 01:31 | 36.02248 | 126.79822 | 24175 ft | 447 kts | 194° |
| 2026-04-29 01:31 | 35.99154 | 126.79487 | 24179 ft | 447 kts | 194° |
| 2026-04-29 01:31 | 35.96099 | 126.79156 | 24178 ft | 446 kts | 194° |
| 2026-04-29 01:32 | 35.93006 | 126.78822 | 24179 ft | 446 kts | 194° |
| 2026-04-29 01:32 | 35.89914 | 126.78489 | 24176 ft | 446 kts | 194° |
| 2026-04-29 01:32 | 35.86826 | 126.78165 | 24182 ft | 446 kts | 193° |
| 2026-04-29 01:32 | 35.83738 | 126.77832 | 24176 ft | 445 kts | 194° |
| 2026-04-29 01:33 | 35.80655 | 126.77495 | 24177 ft | 445 kts | 194° |
| 2026-04-29 01:33 | 35.77565 | 126.77156 | 24179 ft | 445 kts | 193° |
| 2026-04-29 01:33 | 35.74478 | 126.76819 | 24179 ft | 445 kts | 193° |
| 2026-04-29 01:33 | 35.71393 | 126.76483 | 24178 ft | 445 kts | 193° |
| 2026-04-29 01:34 | 35.68302 | 126.76148 | 24177 ft | 445 kts | 193° |
| 2026-04-29 01:34 | 35.65226 | 126.75816 | 24171 ft | 445 kts | 193° |
| 2026-04-29 01:34 | 35.62147 | 126.75484 | 24172 ft | 445 kts | 193° |
| 2026-04-29 01:34 | 35.59060 | 126.75152 | 24171 ft | 445 kts | 193° |
| 2026-04-29 01:35 | 35.55980 | 126.74821 | 24168 ft | 445 kts | 193° |
| 2026-04-29 01:35 | 35.52891 | 126.74480 | 24165 ft | 442 kts | 195° |
| 2026-04-29 01:35 | 35.49836 | 126.74071 | 24169 ft | 443 kts | 195° |
| 2026-04-29 01:35 | 35.46807 | 126.73639 | 24163 ft | 443 kts | 195° |
| 2026-04-29 01:36 | 35.43737 | 126.73231 | 24166 ft | 444 kts | 195° |
| 2026-04-29 01:36 | 35.40663 | 126.72857 | 24167 ft | 444 kts | 194° |
| 2026-04-29 01:36 | 35.37577 | 126.72508 | 24169 ft | 444 kts | 194° |
| 2026-04-29 01:36 | 35.34493 | 126.72173 | 24165 ft | 445 kts | 194° |
| 2026-04-29 01:37 | 35.31412 | 126.71843 | 24170 ft | 445 kts | 194° |
| 2026-04-29 01:37 | 35.28330 | 126.71517 | 24171 ft | 445 kts | 194° |
| 2026-04-29 01:37 | 35.25238 | 126.71218 | 24174 ft | 446 kts | 192° |
| 2026-04-29 01:37 | 35.22134 | 126.70987 | 24169 ft | 447 kts | 191° |
| 2026-04-29 01:38 | 35.19019 | 126.70806 | 24167 ft | 447 kts | 190° |
| 2026-04-29 01:38 | 35.15903 | 126.70679 | 24163 ft | 448 kts | 189° |
| 2026-04-29 01:38 | 35.12821 | 126.70609 | 24160 ft | 449 kts | 188° |
| 2026-04-29 01:38 | 35.09701 | 126.70596 | 24156 ft | 450 kts | 188° |
| 2026-04-29 01:39 | 35.06566 | 126.70643 | 24153 ft | 451 kts | 187° |
| 2026-04-29 01:39 | 35.03432 | 126.70749 | 24135 ft | 451 kts | 186° |
| 2026-04-29 01:39 | 35.00292 | 126.70897 | 24125 ft | 451 kts | 185° |
| 2026-04-29 01:39 | 34.97150 | 126.71072 | 24123 ft | 452 kts | 185° |
| 2026-04-29 01:40 | 34.94005 | 126.71276 | 24116 ft | 453 kts | 185° |
| 2026-04-29 01:40 | 34.90857 | 126.71509 | 24113 ft | 453 kts | 184° |
| 2026-04-29 01:40 | 34.87708 | 126.71776 | 24112 ft | 454 kts | 184° |
| 2026-04-29 01:40 | 34.84559 | 126.72078 | 24109 ft | 455 kts | 183° |
| 2026-04-29 01:41 | 34.81410 | 126.72425 | 24104 ft | 455 kts | 182° |
| 2026-04-29 01:41 | 34.78250 | 126.72821 | 24103 ft | 456 kts | 182° |
| 2026-04-29 01:41 | 34.75093 | 126.73273 | 24100 ft | 458 kts | 181° |
| 2026-04-29 01:41 | 34.71927 | 126.73790 | 24093 ft | 459 kts | 180° |
| 2026-04-29 01:42 | 34.68763 | 126.74357 | 24082 ft | 460 kts | 179° |
| 2026-04-29 01:42 | 34.65610 | 126.74960 | 24078 ft | 460 kts | 179° |
| 2026-04-29 01:42 | 34.62439 | 126.75603 | 24075 ft | 461 kts | 178° |
| 2026-04-29 01:42 | 34.59281 | 126.76282 | 24067 ft | 461 kts | 178° |
| 2026-04-29 01:43 | 34.56124 | 126.76996 | 24068 ft | 462 kts | 177° |
| 2026-04-29 01:43 | 34.53020 | 126.77736 | 24056 ft | 462 kts | 176° |
| 2026-04-29 01:43 | 34.49825 | 126.78185 | 24093 ft | 449 kts | 188° |
| 2026-04-29 01:43 | 34.46815 | 126.77687 | 23623 ft | 429 kts | 202° |
| 2026-04-29 01:44 | 34.44195 | 126.76244 | 22973 ft | 409 kts | 219° |
| 2026-04-29 01:44 | 34.42057 | 126.74057 | 22638 ft | 389 kts | 229° |
| 2026-04-29 01:44 | 34.40255 | 126.71749 | 22311 ft | 376 kts | 231° |
| 2026-04-29 01:44 | 34.38576 | 126.69446 | 21696 ft | 352 kts | 232° |
| 2026-04-29 01:45 | 34.37021 | 126.67256 | 20965 ft | 333 kts | 233° |
| 2026-04-29 01:45 | 34.35507 | 126.65222 | 20245 ft | 319 kts | 229° |
| 2026-04-29 01:45 | 34.33818 | 126.63534 | 19535 ft | 312 kts | 219° |
| 2026-04-29 01:45 | 34.31918 | 126.62321 | 18873 ft | 307 kts | 209° |
| 2026-04-29 01:46 | 34.29888 | 126.61539 | 18002 ft | 308 kts | 201° |
| 2026-04-29 01:46 | 34.27776 | 126.61066 | 16981 ft | 310 kts | 196° |
| 2026-04-29 01:46 | 34.25669 | 126.60596 | 15978 ft | 304 kts | 200° |
| 2026-04-29 01:46 | 34.23650 | 126.59871 | 15061 ft | 305 kts | 205° |
| 2026-04-29 01:47 | 34.21631 | 126.58992 | 14371 ft | 312 kts | 206° |
| 2026-04-29 01:47 | 34.19600 | 126.58058 | 13870 ft | 312 kts | 206° |
| 2026-04-29 01:47 | 34.17586 | 126.57108 | 13339 ft | 311 kts | 207° |
| 2026-04-29 01:47 | 34.15584 | 126.56147 | 12805 ft | 308 kts | 207° |
| 2026-04-29 01:48 | 34.13607 | 126.55189 | 12315 ft | 305 kts | 207° |
| 2026-04-29 01:48 | 34.11650 | 126.54233 | 11831 ft | 302 kts | 207° |
| 2026-04-29 01:48 | 34.09727 | 126.53293 | 11534 ft | 293 kts | 207° |
| 2026-04-29 01:48 | 34.07856 | 126.52378 | 11169 ft | 285 kts | 207° |
| 2026-04-29 01:49 | 34.06085 | 126.51516 | 10791 ft | 265 kts | 207° |
| 2026-04-29 01:49 | 34.04396 | 126.50689 | 10439 ft | 263 kts | 207° |
| 2026-04-29 01:49 | 34.02709 | 126.49856 | 10082 ft | 261 kts | 207° |
| 2026-04-29 01:49 | 34.01033 | 126.49030 | 9683 ft | 260 kts | 207° |
| 2026-04-29 01:50 | 33.99384 | 126.48220 | 9299 ft | 258 kts | 207° |
| 2026-04-29 01:50 | 33.97722 | 126.47404 | 8911 ft | 258 kts | 207° |
| 2026-04-29 01:50 | 33.96061 | 126.46589 | 8523 ft | 258 kts | 206° |
| 2026-04-29 01:50 | 33.94397 | 126.45774 | 8149 ft | 259 kts | 206° |
| 2026-04-29 01:51 | 33.92728 | 126.44957 | 7772 ft | 259 kts | 206° |
| 2026-04-29 01:51 | 33.91060 | 126.44140 | 7398 ft | 259 kts | 206° |
| 2026-04-29 01:51 | 33.89389 | 126.43322 | 7035 ft | 260 kts | 205° |
| 2026-04-29 01:51 | 33.87709 | 126.42501 | 6669 ft | 260 kts | 205° |
| 2026-04-29 01:52 | 33.86029 | 126.41680 | 6289 ft | 261 kts | 205° |
| 2026-04-29 01:52 | 33.84348 | 126.40859 | 5899 ft | 261 kts | 204° |
| 2026-04-29 01:52 | 33.82693 | 126.40051 | 5517 ft | 261 kts | 204° |
| 2026-04-29 01:52 | 33.81008 | 126.39230 | 5146 ft | 261 kts | 204° |
| 2026-04-29 01:53 | 33.79320 | 126.38407 | 4759 ft | 262 kts | 204° |
| 2026-04-29 01:53 | 33.77629 | 126.37585 | 4374 ft | 262 kts | 203° |
| 2026-04-29 01:53 | 33.75940 | 126.36762 | 4061 ft | 262 kts | 203° |
| 2026-04-29 01:53 | 33.74242 | 126.35935 | 3995 ft | 264 kts | 203° |
| 2026-04-29 01:54 | 33.72533 | 126.35105 | 3990 ft | 265 kts | 203° |
| 2026-04-29 01:54 | 33.70827 | 126.34276 | 3991 ft | 265 kts | 203° |
| 2026-04-29 01:54 | 33.69117 | 126.33445 | 3991 ft | 265 kts | 203° |
| 2026-04-29 01:54 | 33.67408 | 126.32614 | 3988 ft | 265 kts | 203° |
| 2026-04-29 01:55 | 33.65698 | 126.31783 | 3990 ft | 265 kts | 203° |
| 2026-04-29 01:55 | 33.63990 | 126.30954 | 3991 ft | 265 kts | 203° |
| 2026-04-29 01:55 | 33.62279 | 126.30123 | 3995 ft | 266 kts | 203° |
| 2026-04-29 01:55 | 33.60565 | 126.29291 | 3994 ft | 266 kts | 203° |
| 2026-04-29 01:56 | 33.58852 | 126.28460 | 3997 ft | 266 kts | 203° |
| 2026-04-29 01:56 | 33.57135 | 126.27628 | 3992 ft | 266 kts | 203° |
| 2026-04-29 01:56 | 33.55416 | 126.26795 | 3991 ft | 266 kts | 203° |
| 2026-04-29 01:56 | 33.53722 | 126.25973 | 3992 ft | 266 kts | 203° |
| 2026-04-29 01:57 | 33.51982 | 126.25131 | 3997 ft | 266 kts | 203° |
| 2026-04-29 01:57 | 33.50288 | 126.24312 | 3992 ft | 266 kts | 203° |
| 2026-04-29 01:57 | 33.48536 | 126.23515 | 3987 ft | 266 kts | 198° |
| 2026-04-29 01:57 | 33.46699 | 126.23335 | 3991 ft | 267 kts | 170° |
| 2026-04-29 01:58 | 33.45038 | 126.24217 | 3988 ft | 258 kts | 139° |
| 2026-04-29 01:58 | 33.43970 | 126.25783 | 3982 ft | 237 kts | 117° |
| 2026-04-29 01:58 | 33.43202 | 126.27479 | 3994 ft | 231 kts | 114° |
| 2026-04-29 01:58 | 33.42487 | 126.29177 | 3885 ft | 225 kts | 110° |
| 2026-04-29 01:59 | 33.42331 | 126.30976 | 3587 ft | 216 kts | 75° |
| 2026-04-29 01:59 | 33.42715 | 126.32695 | 3353 ft | 212 kts | 60° |
| 2026-04-29 01:59 | 33.43479 | 126.34167 | 3260 ft | 204 kts | 52° |
| 2026-04-29 01:59 | 33.44235 | 126.35558 | 3266 ft | 196 kts | 57° |
| 2026-04-29 02:00 | 33.44908 | 126.36925 | 3304 ft | 185 kts | 55° |
| 2026-04-29 02:00 | 33.45567 | 126.38211 | 3174 ft | 179 kts | 54° |
| 2026-04-29 02:00 | 33.46240 | 126.39456 | 2633 ft | 177 kts | 52° |
| 2026-04-29 02:00 | 33.46936 | 126.40701 | 2045 ft | 183 kts | 52° |
| 2026-04-29 02:01 | 33.47577 | 126.42041 | 1458 ft | 181 kts | 63° |
| 2026-04-29 02:01 | 33.48158 | 126.43317 | 1007 ft | 168 kts | 55° |
| 2026-04-29 02:01 | 33.48797 | 126.44441 | 725 ft | 159 kts | 57° |
| 2026-04-29 02:01 | 33.49331 | 126.45581 | 465 ft | 157 kts | 54° |
| 2026-04-29 02:02 | 33.49915 | 126.46688 | 176 ft | 155 kts | 57° |
| 2026-04-29 02:02 | 33.50445 | 126.47725 | 99 ft | 123 kts | 58° |
| 2026-04-29 02:02 | 33.50678 | 126.48163 | 101 ft | 66 kts | 57° |
| 2026-04-29 02:02 | 33.50772 | 126.48525 | 102 ft | 28 kts | 84° |
| 2026-04-29 02:03 | 33.50771 | 126.48670 | 101 ft | 18 kts | 92° |
| 2026-04-29 02:03 | 33.50790 | 126.48828 | 103 ft | 6 kts | 107° |
| 2026-04-29 02:03 | 33.50763 | 126.48866 | 103 ft | 7 kts | 135° |
| 2026-04-29 02:03 | 33.50716 | 126.48915 | 102 ft | 11 kts | 137° |
| 2026-04-29 02:04 | 33.50700 | 126.48966 | 102 ft | 4 kts | 69° |
| 2026-04-29 02:04 | 33.50723 | 126.49004 | 101 ft | 7 kts | 48° |
| 2026-04-29 02:04 | 33.50748 | 126.49045 | 100 ft | 10 kts | 55° |
| 2026-04-29 02:04 | 33.50780 | 126.49119 | 100 ft | 4 kts | 85° |
| 2026-04-29 02:05 | 33.50760 | 126.49152 | 101 ft | 4 kts | 144° |
| 2026-04-29 02:05 | 33.50737 | 126.49167 | 101 ft | 6 kts | 154° |
| 2026-04-29 02:05 | 33.50715 | 126.49179 | 101 ft | 0 kts | 156° |
| 2026-04-29 02:05 | 33.50714 | 126.49180 | 101 ft | 0 kts | 156° |